Terminal Aerodrome Forecast
Issued by NWS Spokane, WA

Home | Current Version | Previous Version | Text Only | Print | Product List | Glossary On
Versions: 1 2 3 4 5 6 7 8 9 10 11 12 13 14 15 16 17 18 19 20 21 22 23 24 25 26 27
000
FTUS46 KOTX 230528
TAFGEG
TAF
KGEG 230528Z 2306/2406 05007KT P6SM VCSH SCT070 BKN100
     FM230800 05006KT P6SM -SHRA VCTS BKN060CB OVC080
     FM231300 05006KT P6SM VCSH SCT080 BKN120
     FM231900 18010KT P6SM -SHRA VCTS SCT080CB OVC120
     FM232100 22016G24KT P6SM -TSRA BKN060CB BKN100=

USA.gov is the U.S. government's official web portal to all federal, state and local government web resources and services.